sensor_id;sensor_type;location;lat;lon;timestamp;P1;durP1;ratioP1;P2;durP2;ratioP2
14377;SDS011;7272;53.668;9.578;2024-03-02T00:01:11;10.17;;;9.17;;
14377;SDS011;7272;53.668;9.578;2024-03-02T00:04:12;9.93;;;8.97;;
14377;SDS011;7272;53.668;9.578;2024-03-02T00:07:14;9.77;;;8.77;;
14377;SDS011;7272;53.668;9.578;2024-03-02T00:10:16;10.30;;;9.23;;
14377;SDS011;7272;53.668;9.578;2024-03-02T00:13:23;11.53;;;10.37;;
14377;SDS011;7272;53.668;9.578;2024-03-02T00:16:25;11.67;;;10.27;;
14377;SDS011;7272;53.668;9.578;2024-03-02T00:19:30;12.57;;;11.27;;
14377;SDS011;7272;53.668;9.578;2024-03-02T00:22:32;11.80;;;10.30;;
14377;SDS011;7272;53.668;9.578;2024-03-02T00:25:41;13.10;;;11.73;;
14377;SDS011;7272;53.668;9.578;2024-03-02T00:28:43;11.93;;;10.67;;
14377;SDS011;7272;53.668;9.578;2024-03-02T00:31:45;13.60;;;12.23;;
14377;SDS011;7272;53.668;9.578;2024-03-02T00:34:48;12.50;;;11.20;;
14377;SDS011;7272;53.668;9.578;2024-03-02T00:37:50;14.50;;;12.00;;
14377;SDS011;7272;53.668;9.578;2024-03-02T00:40:52;12.93;;;11.63;;
14377;SDS011;7272;53.668;9.578;2024-03-02T00:43:56;14.90;;;13.20;;
14377;SDS011;7272;53.668;9.578;2024-03-02T00:46:59;11.87;;;10.77;;
14377;SDS011;7272;53.668;9.578;2024-03-02T00:50:00;12.83;;;11.07;;
14377;SDS011;7272;53.668;9.578;2024-03-02T00:53:01;13.33;;;11.53;;
14377;SDS011;7272;53.668;9.578;2024-03-02T00:56:04;11.73;;;10.53;;
14377;SDS011;7272;53.668;9.578;2024-03-02T00:59:10;11.33;;;10.17;;
14377;SDS011;7272;53.668;9.578;2024-03-02T01:02:12;12.53;;;11.23;;
14377;SDS011;7272;53.668;9.578;2024-03-02T01:05:13;12.93;;;11.63;;
14377;SDS011;7272;53.668;9.578;2024-03-02T01:08:14;12.23;;;10.87;;
14377;SDS011;7272;53.668;9.578;2024-03-02T01:11:16;11.40;;;10.30;;
14377;SDS011;7272;53.668;9.578;2024-03-02T01:14:18;13.90;;;12.50;;
14377;SDS011;7272;53.668;9.578;2024-03-02T01:17:19;12.90;;;11.60;;
14377;SDS011;7272;53.668;9.578;2024-03-02T01:20:20;13.70;;;12.30;;
14377;SDS011;7272;53.668;9.578;2024-03-02T01:23:23;13.43;;;12.07;;
14377;SDS011;7272;53.668;9.578;2024-03-02T01:26:25;12.67;;;11.43;;
14377;SDS011;7272;53.668;9.578;2024-03-02T01:29:26;13.87;;;12.53;;
14377;SDS011;7272;53.668;9.578;2024-03-02T01:32:27;13.50;;;12.10;;
14377;SDS011;7272;53.668;9.578;2024-03-02T01:35:28;12.97;;;11.60;;
14377;SDS011;7272;53.668;9.578;2024-03-02T01:38:29;13.67;;;12.27;;
14377;SDS011;7272;53.668;9.578;2024-03-02T01:41:32;13.77;;;12.47;;
14377;SDS011;7272;53.668;9.578;2024-03-02T01:44:33;13.33;;;11.93;;
14377;SDS011;7272;53.668;9.578;2024-03-02T01:47:34;14.67;;;13.03;;
14377;SDS011;7272;53.668;9.578;2024-03-02T01:50:36;12.83;;;11.53;;
14377;SDS011;7272;53.668;9.578;2024-03-02T01:53:37;13.73;;;12.13;;
14377;SDS011;7272;53.668;9.578;2024-03-02T01:56:39;14.00;;;12.67;;
14377;SDS011;7272;53.668;9.578;2024-03-02T01:59:41;14.13;;;12.77;;
14377;SDS011;7272;53.668;9.578;2024-03-02T02:02:42;14.97;;;13.40;;
14377;SDS011;7272;53.668;9.578;2024-03-02T02:05:44;14.50;;;12.97;;
14377;SDS011;7272;53.668;9.578;2024-03-02T02:08:46;16.33;;;13.50;;
14377;SDS011;7272;53.668;9.578;2024-03-02T02:11:48;15.27;;;13.57;;
14377;SDS011;7272;53.668;9.578;2024-03-02T02:14:50;16.97;;;15.13;;
14377;SDS011;7272;53.668;9.578;2024-03-02T02:17:52;17.30;;;14.53;;
14377;SDS011;7272;53.668;9.578;2024-03-02T02:20:53;17.37;;;14.40;;
14377;SDS011;7272;53.668;9.578;2024-03-02T02:23:55;16.97;;;15.23;;
14377;SDS011;7272;53.668;9.578;2024-03-02T02:26:56;15.90;;;14.27;;
14377;SDS011;7272;53.668;9.578;2024-03-02T02:29:57;16.10;;;14.40;;
14377;SDS011;7272;53.668;9.578;2024-03-02T02:33:00;17.07;;;14.57;;
14377;SDS011;7272;53.668;9.578;2024-03-02T02:36:01;16.17;;;14.10;;
14377;SDS011;7272;53.668;9.578;2024-03-02T02:39:03;16.93;;;14.50;;
14377;SDS011;7272;53.668;9.578;2024-03-02T02:42:05;15.17;;;13.50;;
14377;SDS011;7272;53.668;9.578;2024-03-02T02:45:07;15.13;;;13.60;;
14377;SDS011;7272;53.668;9.578;2024-03-02T02:48:08;14.77;;;13.17;;
14377;SDS011;7272;53.668;9.578;2024-03-02T02:51:10;15.03;;;13.47;;
14377;SDS011;7272;53.668;9.578;2024-03-02T02:54:12;17.77;;;15.37;;
14377;SDS011;7272;53.668;9.578;2024-03-02T02:57:13;16.97;;;15.20;;
14377;SDS011;7272;53.668;9.578;2024-03-02T03:00:14;17.10;;;14.87;;
14377;SDS011;7272;53.668;9.578;2024-03-02T03:03:18;18.23;;;15.50;;
14377;SDS011;7272;53.668;9.578;2024-03-02T03:06:19;16.53;;;14.77;;
14377;SDS011;7272;53.668;9.578;2024-03-02T03:09:21;17.73;;;15.87;;
14377;SDS011;7272;53.668;9.578;2024-03-02T03:12:22;17.20;;;15.47;;
14377;SDS011;7272;53.668;9.578;2024-03-02T03:15:24;17.27;;;15.13;;
14377;SDS011;7272;53.668;9.578;2024-03-02T03:18:25;16.97;;;15.10;;
14377;SDS011;7272;53.668;9.578;2024-03-02T03:21:27;17.07;;;15.33;;
14377;SDS011;7272;53.668;9.578;2024-03-02T03:24:29;17.20;;;15.43;;
14377;SDS011;7272;53.668;9.578;2024-03-02T03:27:30;17.93;;;15.23;;
14377;SDS011;7272;53.668;9.578;2024-03-02T03:30:32;17.27;;;15.20;;
14377;SDS011;7272;53.668;9.578;2024-03-02T03:33:33;16.27;;;14.03;;
14377;SDS011;7272;53.668;9.578;2024-03-02T03:36:35;15.80;;;14.10;;
14377;SDS011;7272;53.668;9.578;2024-03-02T03:39:37;15.63;;;14.03;;
14377;SDS011;7272;53.668;9.578;2024-03-02T03:42:39;15.30;;;13.70;;
14377;SDS011;7272;53.668;9.578;2024-03-02T03:45:40;15.80;;;14.20;;
14377;SDS011;7272;53.668;9.578;2024-03-02T03:48:42;15.47;;;13.77;;
14377;SDS011;7272;53.668;9.578;2024-03-02T03:51:43;15.03;;;13.60;;
14377;SDS011;7272;53.668;9.578;2024-03-02T03:54:45;16.70;;;15.00;;
14377;SDS011;7272;53.668;9.578;2024-03-02T03:57:46;16.33;;;14.67;;
14377;SDS011;7272;53.668;9.578;2024-03-02T04:00:47;16.30;;;14.47;;
14377;SDS011;7272;53.668;9.578;2024-03-02T04:03:48;16.90;;;15.20;;
14377;SDS011;7272;53.668;9.578;2024-03-02T04:06:50;16.07;;;14.33;;
14377;SDS011;7272;53.668;9.578;2024-03-02T04:09:51;17.47;;;14.53;;
14377;SDS011;7272;53.668;9.578;2024-03-02T04:12:53;16.27;;;14.57;;
14377;SDS011;7272;53.668;9.578;2024-03-02T04:15:54;18.37;;;16.27;;
14377;SDS011;7272;53.668;9.578;2024-03-02T04:18:55;18.23;;;14.87;;
14377;SDS011;7272;53.668;9.578;2024-03-02T04:21:56;17.80;;;15.67;;
14377;SDS011;7272;53.668;9.578;2024-03-02T04:24:58;15.90;;;13.73;;
14377;SDS011;7272;53.668;9.578;2024-03-02T04:28:00;17.27;;;15.17;;
14377;SDS011;7272;53.668;9.578;2024-03-02T04:31:01;17.87;;;16.03;;
14377;SDS011;7272;53.668;9.578;2024-03-02T04:34:02;18.00;;;16.13;;
14377;SDS011;7272;53.668;9.578;2024-03-02T04:37:03;18.37;;;15.77;;
14377;SDS011;7272;53.668;9.578;2024-03-02T04:40:07;16.83;;;15.03;;
14377;SDS011;7272;53.668;9.578;2024-03-02T04:43:09;19.20;;;16.60;;
14377;SDS011;7272;53.668;9.578;2024-03-02T04:46:10;17.97;;;15.87;;
14377;SDS011;7272;53.668;9.578;2024-03-02T04:49:11;19.10;;;16.40;;
14377;SDS011;7272;53.668;9.578;2024-03-02T04:52:13;17.80;;;15.27;;
14377;SDS011;7272;53.668;9.578;2024-03-02T04:55:15;16.40;;;14.57;;
14377;SDS011;7272;53.668;9.578;2024-03-02T04:58:37;16.00;;;14.30;;
14377;SDS011;7272;53.668;9.578;2024-03-02T05:01:38;18.97;;;15.70;;
14377;SDS011;7272;53.668;9.578;2024-03-02T05:04:40;16.50;;;14.77;;
14377;SDS011;7272;53.668;9.578;2024-03-02T05:07:42;19.27;;;15.70;;
14377;SDS011;7272;53.668;9.578;2024-03-02T05:10:44;17.93;;;16.00;;
14377;SDS011;7272;53.668;9.578;2024-03-02T05:13:46;18.93;;;16.90;;
14377;SDS011;7272;53.668;9.578;2024-03-02T05:16:47;22.33;;;18.80;;
14377;SDS011;7272;53.668;9.578;2024-03-02T05:19:48;19.37;;;17.33;;
14377;SDS011;7272;53.668;9.578;2024-03-02T05:22:49;22.77;;;17.53;;
14377;SDS011;7272;53.668;9.578;2024-03-02T05:25:51;20.83;;;17.90;;
14377;SDS011;7272;53.668;9.578;2024-03-02T05:28:53;19.23;;;17.00;;
14377;SDS011;7272;53.668;9.578;2024-03-02T05:31:54;18.77;;;16.83;;
14377;SDS011;7272;53.668;9.578;2024-03-02T05:34:55;19.27;;;17.13;;
14377;SDS011;7272;53.668;9.578;2024-03-02T05:37:56;19.27;;;17.07;;
14377;SDS011;7272;53.668;9.578;2024-03-02T05:40:58;19.53;;;17.43;;
14377;SDS011;7272;53.668;9.578;2024-03-02T05:43:59;18.87;;;16.87;;
14377;SDS011;7272;53.668;9.578;2024-03-02T05:47:00;19.63;;;17.03;;
14377;SDS011;7272;53.668;9.578;2024-03-02T05:50:02;21.30;;;18.20;;
14377;SDS011;7272;53.668;9.578;2024-03-02T05:53:04;22.20;;;18.40;;
14377;SDS011;7272;53.668;9.578;2024-03-02T05:56:06;20.03;;;17.60;;
14377;SDS011;7272;53.668;9.578;2024-03-02T05:59:08;20.33;;;17.00;;
14377;SDS011;7272;53.668;9.578;2024-03-02T06:02:12;21.43;;;19.20;;
14377;SDS011;7272;53.668;9.578;2024-03-02T06:05:14;22.87;;;17.90;;
14377;SDS011;7272;53.668;9.578;2024-03-02T06:08:15;21.67;;;18.10;;
14377;SDS011;7272;53.668;9.578;2024-03-02T06:11:17;23.03;;;18.50;;
14377;SDS011;7272;53.668;9.578;2024-03-02T06:14:20;20.33;;;18.17;;
14377;SDS011;7272;53.668;9.578;2024-03-02T06:17:21;19.37;;;17.23;;
14377;SDS011;7272;53.668;9.578;2024-03-02T06:20:22;21.70;;;18.67;;
14377;SDS011;7272;53.668;9.578;2024-03-02T06:23:24;21.00;;;17.33;;
14377;SDS011;7272;53.668;9.578;2024-03-02T06:26:26;21.33;;;18.57;;
14377;SDS011;7272;53.668;9.578;2024-03-02T06:29:27;18.60;;;16.60;;
14377;SDS011;7272;53.668;9.578;2024-03-02T06:32:28;19.07;;;16.40;;
14377;SDS011;7272;53.668;9.578;2024-03-02T06:35:29;18.40;;;16.47;;
14377;SDS011;7272;53.668;9.578;2024-03-02T06:38:30;17.97;;;15.77;;
14377;SDS011;7272;53.668;9.578;2024-03-02T06:41:33;16.63;;;14.37;;
14377;SDS011;7272;53.668;9.578;2024-03-02T06:44:34;17.27;;;15.47;;
14377;SDS011;7272;53.668;9.578;2024-03-02T06:47:35;15.47;;;13.80;;
14377;SDS011;7272;53.668;9.578;2024-03-02T06:50:37;15.80;;;14.10;;
14377;SDS011;7272;53.668;9.578;2024-03-02T06:53:38;14.70;;;12.53;;
14377;SDS011;7272;53.668;9.578;2024-03-02T06:56:40;13.90;;;12.47;;
14377;SDS011;7272;53.668;9.578;2024-03-02T06:59:41;15.63;;;14.03;;
14377;SDS011;7272;53.668;9.578;2024-03-02T07:02:42;14.67;;;13.20;;
14377;SDS011;7272;53.668;9.578;2024-03-02T07:05:43;14.37;;;12.13;;
14377;SDS011;7272;53.668;9.578;2024-03-02T07:08:44;12.90;;;11.50;;
14377;SDS011;7272;53.668;9.578;2024-03-02T07:11:46;16.30;;;14.47;;
14377;SDS011;7272;53.668;9.578;2024-03-02T07:14:47;15.17;;;13.57;;
14377;SDS011;7272;53.668;9.578;2024-03-02T07:18:11;16.53;;;14.77;;
14377;SDS011;7272;53.668;9.578;2024-03-02T07:21:12;16.63;;;14.83;;
14377;SDS011;7272;53.668;9.578;2024-03-02T07:24:13;18.30;;;16.33;;
14377;SDS011;7272;53.668;9.578;2024-03-02T07:27:17;14.67;;;13.17;;
14377;SDS011;7272;53.668;9.578;2024-03-02T07:30:18;15.10;;;13.50;;
14377;SDS011;7272;53.668;9.578;2024-03-02T07:33:19;17.47;;;15.50;;
14377;SDS011;7272;53.668;9.578;2024-03-02T07:36:21;17.60;;;15.00;;
14377;SDS011;7272;53.668;9.578;2024-03-02T07:39:23;16.57;;;14.87;;
14377;SDS011;7272;53.668;9.578;2024-03-02T07:42:25;18.10;;;16.17;;
14377;SDS011;7272;53.668;9.578;2024-03-02T07:45:26;18.13;;;14.93;;
14377;SDS011;7272;53.668;9.578;2024-03-02T07:48:27;18.73;;;16.83;;
14377;SDS011;7272;53.668;9.578;2024-03-02T07:51:28;16.47;;;14.77;;
14377;SDS011;7272;53.668;9.578;2024-03-02T07:54:29;17.97;;;16.10;;
14377;SDS011;7272;53.668;9.578;2024-03-02T07:57:31;18.63;;;16.73;;
14377;SDS011;7272;53.668;9.578;2024-03-02T08:00:33;16.43;;;14.83;;
14377;SDS011;7272;53.668;9.578;2024-03-02T08:03:35;17.03;;;14.93;;
14377;SDS011;7272;53.668;9.578;2024-03-02T08:06:37;16.17;;;14.47;;
14377;SDS011;7272;53.668;9.578;2024-03-02T08:09:38;15.33;;;13.10;;
14377;SDS011;7272;53.668;9.578;2024-03-02T08:12:40;14.97;;;13.47;;
14377;SDS011;7272;53.668;9.578;2024-03-02T08:15:41;15.13;;;13.50;;
14377;SDS011;7272;53.668;9.578;2024-03-02T08:18:42;15.40;;;13.77;;
14377;SDS011;7272;53.668;9.578;2024-03-02T08:21:44;14.53;;;13.07;;
14377;SDS011;7272;53.668;9.578;2024-03-02T08:24:45;13.27;;;11.97;;
14377;SDS011;7272;53.668;9.578;2024-03-02T08:27:48;14.40;;;12.90;;
14377;SDS011;7272;53.668;9.578;2024-03-02T08:30:49;13.20;;;11.80;;
14377;SDS011;7272;53.668;9.578;2024-03-02T08:33:50;14.67;;;13.27;;
14377;SDS011;7272;53.668;9.578;2024-03-02T08:36:51;13.20;;;11.90;;
14377;SDS011;7272;53.668;9.578;2024-03-02T08:39:53;14.27;;;12.87;;
14377;SDS011;7272;53.668;9.578;2024-03-02T08:42:55;13.70;;;12.30;;
14377;SDS011;7272;53.668;9.578;2024-03-02T08:45:56;15.40;;;13.77;;
14377;SDS011;7272;53.668;9.578;2024-03-02T08:48:57;14.50;;;13.00;;
14377;SDS011;7272;53.668;9.578;2024-03-02T08:51:58;14.33;;;12.93;;
14377;SDS011;7272;53.668;9.578;2024-03-02T08:55:00;13.57;;;12.27;;
14377;SDS011;7272;53.668;9.578;2024-03-02T08:58:02;13.80;;;11.90;;
14377;SDS011;7272;53.668;9.578;2024-03-02T09:01:03;12.57;;;11.30;;
14377;SDS011;7272;53.668;9.578;2024-03-02T09:04:05;13.43;;;12.03;;
14377;SDS011;7272;53.668;9.578;2024-03-02T09:07:06;13.40;;;12.20;;
14377;SDS011;7272;53.668;9.578;2024-03-02T09:10:08;14.07;;;12.73;;
14377;SDS011;7272;53.668;9.578;2024-03-02T09:13:10;12.37;;;11.13;;
14377;SDS011;7272;53.668;9.578;2024-03-02T09:16:11;13.23;;;11.87;;
14377;SDS011;7272;53.668;9.578;2024-03-02T09:19:13;13.50;;;12.10;;
14377;SDS011;7272;53.668;9.578;2024-03-02T09:22:14;13.60;;;12.27;;
14377;SDS011;7272;53.668;9.578;2024-03-02T09:25:15;12.57;;;11.33;;
14377;SDS011;7272;53.668;9.578;2024-03-02T09:28:17;13.70;;;11.13;;
14377;SDS011;7272;53.668;9.578;2024-03-02T09:31:18;14.00;;;12.67;;
14377;SDS011;7272;53.668;9.578;2024-03-02T09:34:19;12.73;;;11.43;;
14377;SDS011;7272;53.668;9.578;2024-03-02T09:37:21;13.03;;;11.80;;
14377;SDS011;7272;53.668;9.578;2024-03-02T09:40:22;12.80;;;11.50;;
14377;SDS011;7272;53.668;9.578;2024-03-02T09:43:24;12.13;;;11.03;;
14377;SDS011;7272;53.668;9.578;2024-03-02T09:46:25;12.37;;;11.07;;
14377;SDS011;7272;53.668;9.578;2024-03-02T09:49:27;12.63;;;11.43;;
14377;SDS011;7272;53.668;9.578;2024-03-02T09:52:28;13.00;;;11.60;;
14377;SDS011;7272;53.668;9.578;2024-03-02T09:55:31;13.10;;;11.80;;
14377;SDS011;7272;53.668;9.578;2024-03-02T09:58:33;12.97;;;11.77;;
14377;SDS011;7272;53.668;9.578;2024-03-02T10:01:34;13.40;;;12.10;;
14377;SDS011;7272;53.668;9.578;2024-03-02T10:04:35;11.43;;;10.40;;
14377;SDS011;7272;53.668;9.578;2024-03-02T10:07:36;13.40;;;11.03;;
14377;SDS011;7272;53.668;9.578;2024-03-02T10:10:38;12.23;;;11.00;;
14377;SDS011;7272;53.668;9.578;2024-03-02T10:13:41;12.30;;;11.10;;
14377;SDS011;7272;53.668;9.578;2024-03-02T10:16:43;12.77;;;11.50;;
14377;SDS011;7272;53.668;9.578;2024-03-02T10:19:45;12.93;;;11.47;;
14377;SDS011;7272;53.668;9.578;2024-03-02T10:22:46;15.07;;;10.43;;
14377;SDS011;7272;53.668;9.578;2024-03-02T10:25:47;11.10;;;10.10;;
14377;SDS011;7272;53.668;9.578;2024-03-02T10:28:49;11.77;;;10.67;;
14377;SDS011;7272;53.668;9.578;2024-03-02T10:32:01;10.57;;;9.67;;
14377;SDS011;7272;53.668;9.578;2024-03-02T10:35:03;11.27;;;10.23;;
14377;SDS011;7272;53.668;9.578;2024-03-02T10:38:06;11.27;;;10.27;;
14377;SDS011;7272;53.668;9.578;2024-03-02T10:41:07;11.20;;;10.20;;
14377;SDS011;7272;53.668;9.578;2024-03-02T10:44:09;10.67;;;9.53;;
14377;SDS011;7272;53.668;9.578;2024-03-02T10:47:11;11.83;;;10.67;;
14377;SDS011;7272;53.668;9.578;2024-03-02T10:50:14;10.90;;;9.70;;
14377;SDS011;7272;53.668;9.578;2024-03-02T10:53:15;9.87;;;8.87;;
14377;SDS011;7272;53.668;9.578;2024-03-02T10:56:22;10.93;;;9.83;;
14377;SDS011;7272;53.668;9.578;2024-03-02T10:59:33;10.73;;;9.73;;
14377;SDS011;7272;53.668;9.578;2024-03-02T11:02:35;10.50;;;9.47;;
14377;SDS011;7272;53.668;9.578;2024-03-02T11:05:40;11.03;;;9.93;;
14377;SDS011;7272;53.668;9.578;2024-03-02T11:08:44;10.67;;;9.57;;
14377;SDS011;7272;53.668;9.578;2024-03-02T11:11:53;9.83;;;8.93;;
14377;SDS011;7272;53.668;9.578;2024-03-02T11:15:02;10.07;;;8.97;;
14377;SDS011;7272;53.668;9.578;2024-03-02T11:18:10;9.53;;;8.63;;
14377;SDS011;7272;53.668;9.578;2024-03-02T11:21:12;10.57;;;9.47;;
14377;SDS011;7272;53.668;9.578;2024-03-02T11:24:28;11.10;;;9.93;;
14377;SDS011;7272;53.668;9.578;2024-03-02T11:31:00;9.67;;;8.60;;
14377;SDS011;7272;53.668;9.578;2024-03-02T11:34:14;9.47;;;8.57;;
14377;SDS011;7272;53.668;9.578;2024-03-02T11:37:19;9.80;;;8.80;;
14377;SDS011;7272;53.668;9.578;2024-03-02T11:40:21;9.27;;;8.37;;
14377;SDS011;7272;53.668;9.578;2024-03-02T11:43:22;9.17;;;8.27;;
14377;SDS011;7272;53.668;9.578;2024-03-02T11:46:27;9.27;;;8.37;;
14377;SDS011;7272;53.668;9.578;2024-03-02T11:49:36;8.37;;;7.47;;
14377;SDS011;7272;53.668;9.578;2024-03-02T11:52:38;9.17;;;8.03;;
14377;SDS011;7272;53.668;9.578;2024-03-02T11:55:42;8.40;;;7.63;;
14377;SDS011;7272;53.668;9.578;2024-03-02T11:58:46;8.83;;;7.93;;
14377;SDS011;7272;53.668;9.578;2024-03-02T12:01:50;8.33;;;7.53;;
14377;SDS011;7272;53.668;9.578;2024-03-02T12:04:51;8.47;;;7.67;;
14377;SDS011;7272;53.668;9.578;2024-03-02T12:07:55;8.63;;;7.90;;
14377;SDS011;7272;53.668;9.578;2024-03-02T12:10:57;8.00;;;7.20;;
14377;SDS011;7272;53.668;9.578;2024-03-02T12:14:00;7.97;;;7.17;;
14377;SDS011;7272;53.668;9.578;2024-03-02T12:17:02;7.60;;;6.90;;
14377;SDS011;7272;53.668;9.578;2024-03-02T12:20:05;9.73;;;8.80;;
14377;SDS011;7272;53.668;9.578;2024-03-02T12:23:07;9.10;;;8.20;;
14377;SDS011;7272;53.668;9.578;2024-03-02T12:26:08;9.20;;;8.20;;
14377;SDS011;7272;53.668;9.578;2024-03-02T12:29:09;8.23;;;7.43;;
14377;SDS011;7272;53.668;9.578;2024-03-02T12:32:11;8.23;;;7.43;;
14377;SDS011;7272;53.668;9.578;2024-03-02T12:35:13;7.63;;;6.90;;
14377;SDS011;7272;53.668;9.578;2024-03-02T12:38:15;7.50;;;6.67;;
14377;SDS011;7272;53.668;9.578;2024-03-02T12:41:16;6.90;;;6.27;;
14377;SDS011;7272;53.668;9.578;2024-03-02T12:44:18;6.63;;;6.03;;
14377;SDS011;7272;53.668;9.578;2024-03-02T12:47:19;6.67;;;6.07;;
14377;SDS011;7272;53.668;9.578;2024-03-02T12:50:21;5.83;;;5.33;;
14377;SDS011;7272;53.668;9.578;2024-03-02T12:53:22;6.27;;;5.63;;
14377;SDS011;7272;53.668;9.578;2024-03-02T12:56:24;6.30;;;5.70;;
14377;SDS011;7272;53.668;9.578;2024-03-02T12:59:25;5.57;;;4.93;;
14377;SDS011;7272;53.668;9.578;2024-03-02T13:02:28;5.80;;;5.30;;
14377;SDS011;7272;53.668;9.578;2024-03-02T13:05:30;6.13;;;5.53;;
14377;SDS011;7272;53.668;9.578;2024-03-02T13:08:32;5.87;;;5.37;;
14377;SDS011;7272;53.668;9.578;2024-03-02T13:11:33;5.73;;;5.23;;
14377;SDS011;7272;53.668;9.578;2024-03-02T13:14:35;5.60;;;5.10;;
14377;SDS011;7272;53.668;9.578;2024-03-02T13:17:37;5.80;;;5.20;;
14377;SDS011;7272;53.668;9.578;2024-03-02T13:20:39;5.90;;;5.40;;
14377;SDS011;7272;53.668;9.578;2024-03-02T13:23:41;5.20;;;4.27;;
14377;SDS011;7272;53.668;9.578;2024-03-02T13:26:42;5.10;;;4.60;;
14377;SDS011;7272;53.668;9.578;2024-03-02T13:29:43;5.33;;;4.83;;
14377;SDS011;7272;53.668;9.578;2024-03-02T13:32:45;6.20;;;5.07;;
14377;SDS011;7272;53.668;9.578;2024-03-02T13:35:46;5.13;;;4.63;;
14377;SDS011;7272;53.668;9.578;2024-03-02T13:38:47;5.73;;;5.13;;
14377;SDS011;7272;53.668;9.578;2024-03-02T13:41:49;4.90;;;4.50;;
14377;SDS011;7272;53.668;9.578;2024-03-02T13:44:53;5.83;;;5.00;;
14377;SDS011;7272;53.668;9.578;2024-03-02T13:47:55;5.50;;;5.00;;
14377;SDS011;7272;53.668;9.578;2024-03-02T13:50:56;5.90;;;5.40;;
14377;SDS011;7272;53.668;9.578;2024-03-02T13:53:57;5.37;;;4.87;;
14377;SDS011;7272;53.668;9.578;2024-03-02T13:56:58;5.77;;;5.20;;
14377;SDS011;7272;53.668;9.578;2024-03-02T14:00:00;5.20;;;4.70;;
14377;SDS011;7272;53.668;9.578;2024-03-02T14:03:02;5.07;;;4.57;;
14377;SDS011;7272;53.668;9.578;2024-03-02T14:06:04;5.17;;;4.77;;
14377;SDS011;7272;53.668;9.578;2024-03-02T14:09:06;5.30;;;4.80;;
14377;SDS011;7272;53.668;9.578;2024-03-02T14:12:07;5.37;;;4.80;;
14377;SDS011;7272;53.668;9.578;2024-03-02T14:15:13;4.93;;;4.50;;
14377;SDS011;7272;53.668;9.578;2024-03-02T14:18:16;4.10;;;3.70;;
14377;SDS011;7272;53.668;9.578;2024-03-02T14:21:17;6.00;;;4.33;;
14377;SDS011;7272;53.668;9.578;2024-03-02T14:24:18;5.47;;;4.97;;
14377;SDS011;7272;53.668;9.578;2024-03-02T14:27:24;5.17;;;4.30;;
14377;SDS011;7272;53.668;9.578;2024-03-02T14:30:25;5.47;;;4.97;;
14377;SDS011;7272;53.668;9.578;2024-03-02T14:33:27;6.53;;;5.10;;
14377;SDS011;7272;53.668;9.578;2024-03-02T14:36:29;5.03;;;4.53;;
14377;SDS011;7272;53.668;9.578;2024-03-02T14:39:30;4.97;;;4.27;;
14377;SDS011;7272;53.668;9.578;2024-03-02T14:42:34;5.40;;;4.90;;
14377;SDS011;7272;53.668;9.578;2024-03-02T14:45:36;4.87;;;4.40;;
14377;SDS011;7272;53.668;9.578;2024-03-02T14:48:38;5.33;;;4.83;;
14377;SDS011;7272;53.668;9.578;2024-03-02T14:51:39;5.87;;;4.83;;
14377;SDS011;7272;53.668;9.578;2024-03-02T14:54:41;5.27;;;4.87;;
14377;SDS011;7272;53.668;9.578;2024-03-02T14:57:42;5.60;;;5.07;;
14377;SDS011;7272;53.668;9.578;2024-03-02T15:00:43;4.57;;;4.17;;
14377;SDS011;7272;53.668;9.578;2024-03-02T15:03:45;5.37;;;4.87;;
14377;SDS011;7272;53.668;9.578;2024-03-02T15:06:46;4.77;;;4.37;;
14377;SDS011;7272;53.668;9.578;2024-03-02T15:09:48;5.93;;;5.27;;
14377;SDS011;7272;53.668;9.578;2024-03-02T15:12:50;5.23;;;4.73;;
14377;SDS011;7272;53.668;9.578;2024-03-02T15:15:52;5.73;;;5.13;;
14377;SDS011;7272;53.668;9.578;2024-03-02T15:18:54;7.90;;;4.93;;
14377;SDS011;7272;53.668;9.578;2024-03-02T15:21:55;5.20;;;4.70;;
14377;SDS011;7272;53.668;9.578;2024-03-02T15:24:56;5.57;;;5.07;;
14377;SDS011;7272;53.668;9.578;2024-03-02T15:27:57;6.77;;;5.03;;
14377;SDS011;7272;53.668;9.578;2024-03-02T15:30:58;5.73;;;4.77;;
14377;SDS011;7272;53.668;9.578;2024-03-02T15:34:00;5.50;;;5.00;;
14377;SDS011;7272;53.668;9.578;2024-03-02T15:37:02;5.07;;;4.67;;
14377;SDS011;7272;53.668;9.578;2024-03-02T15:40:04;5.30;;;4.73;;
14377;SDS011;7272;53.668;9.578;2024-03-02T15:43:08;6.33;;;5.17;;
14377;SDS011;7272;53.668;9.578;2024-03-02T15:46:09;5.13;;;4.73;;
14377;SDS011;7272;53.668;9.578;2024-03-02T15:49:11;5.00;;;4.60;;
14377;SDS011;7272;53.668;9.578;2024-03-02T15:52:12;5.47;;;4.83;;
14377;SDS011;7272;53.668;9.578;2024-03-02T15:55:17;5.90;;;5.40;;
14377;SDS011;7272;53.668;9.578;2024-03-02T15:58:18;7.43;;;5.50;;
14377;SDS011;7272;53.668;9.578;2024-03-02T16:01:19;5.33;;;4.87;;
14377;SDS011;7272;53.668;9.578;2024-03-02T16:04:21;6.13;;;5.57;;
14377;SDS011;7272;53.668;9.578;2024-03-02T16:07:22;5.53;;;5.03;;
14377;SDS011;7272;53.668;9.578;2024-03-02T16:10:24;5.73;;;5.17;;
14377;SDS011;7272;53.668;9.578;2024-03-02T16:13:25;6.03;;;5.43;;
14377;SDS011;7272;53.668;9.578;2024-03-02T16:16:26;6.53;;;5.47;;
14377;SDS011;7272;53.668;9.578;2024-03-02T16:19:28;5.27;;;4.77;;
14377;SDS011;7272;53.668;9.578;2024-03-02T16:22:29;5.63;;;5.03;;
14377;SDS011;7272;53.668;9.578;2024-03-02T16:25:30;5.00;;;4.60;;
14377;SDS011;7272;53.668;9.578;2024-03-02T16:28:32;5.00;;;4.50;;
14377;SDS011;7272;53.668;9.578;2024-03-02T16:31:33;4.73;;;4.30;;
14377;SDS011;7272;53.668;9.578;2024-03-02T16:34:35;4.67;;;4.23;;
14377;SDS011;7272;53.668;9.578;2024-03-02T16:37:38;4.67;;;4.27;;
14377;SDS011;7272;53.668;9.578;2024-03-02T16:40:39;5.30;;;4.67;;
14377;SDS011;7272;53.668;9.578;2024-03-02T16:43:40;5.20;;;4.70;;
14377;SDS011;7272;53.668;9.578;2024-03-02T16:46:42;6.03;;;4.97;;
14377;SDS011;7272;53.668;9.578;2024-03-02T16:49:45;5.83;;;5.33;;
14377;SDS011;7272;53.668;9.578;2024-03-02T16:52:47;10.97;;;8.30;;
14377;SDS011;7272;53.668;9.578;2024-03-02T16:55:48;11.60;;;9.77;;
14377;SDS011;7272;53.668;9.578;2024-03-02T16:58:49;11.47;;;9.57;;
14377;SDS011;7272;53.668;9.578;2024-03-02T17:01:50;14.30;;;10.30;;
14377;SDS011;7272;53.668;9.578;2024-03-02T17:04:52;8.10;;;7.27;;
14377;SDS011;7272;53.668;9.578;2024-03-02T17:07:56;8.53;;;7.63;;
14377;SDS011;7272;53.668;9.578;2024-03-02T17:10:58;8.07;;;7.33;;
14377;SDS011;7272;53.668;9.578;2024-03-02T17:13:59;8.40;;;7.60;;
14377;SDS011;7272;53.668;9.578;2024-03-02T17:17:00;9.10;;;8.20;;
14377;SDS011;7272;53.668;9.578;2024-03-02T17:20:03;9.33;;;8.43;;
14377;SDS011;7272;53.668;9.578;2024-03-02T17:23:08;9.47;;;8.30;;
14377;SDS011;7272;53.668;9.578;2024-03-02T17:26:10;9.63;;;8.63;;
14377;SDS011;7272;53.668;9.578;2024-03-02T17:29:11;14.93;;;11.70;;
14377;SDS011;7272;53.668;9.578;2024-03-02T17:32:12;13.60;;;11.37;;
14377;SDS011;7272;53.668;9.578;2024-03-02T17:35:14;11.17;;;9.00;;
14377;SDS011;7272;53.668;9.578;2024-03-02T17:38:15;14.00;;;10.87;;
14377;SDS011;7272;53.668;9.578;2024-03-02T17:41:17;11.23;;;9.67;;
14377;SDS011;7272;53.668;9.578;2024-03-02T17:44:18;9.10;;;8.10;;
14377;SDS011;7272;53.668;9.578;2024-03-02T17:47:19;9.20;;;8.07;;
14377;SDS011;7272;53.668;9.578;2024-03-02T17:50:21;8.47;;;7.67;;
14377;SDS011;7272;53.668;9.578;2024-03-02T17:53:22;9.03;;;8.10;;
14377;SDS011;7272;53.668;9.578;2024-03-02T17:56:26;9.40;;;8.40;;
14377;SDS011;7272;53.668;9.578;2024-03-02T17:59:28;9.93;;;8.23;;
14377;SDS011;7272;53.668;9.578;2024-03-02T18:02:29;8.77;;;7.47;;
14377;SDS011;7272;53.668;9.578;2024-03-02T18:05:34;9.40;;;8.33;;
14377;SDS011;7272;53.668;9.578;2024-03-02T18:08:36;12.00;;;8.47;;
14377;SDS011;7272;53.668;9.578;2024-03-02T18:11:38;9.17;;;7.67;;
14377;SDS011;7272;53.668;9.578;2024-03-02T18:14:39;9.23;;;7.70;;
14377;SDS011;7272;53.668;9.578;2024-03-02T18:17:41;11.30;;;9.13;;